sensor_id;sensor_type;location;lat;lon;timestamp;temperature;humidity
21312;DHT22;18076;52.154;10.570;2022-09-25T00:01:22;12.70;99.90
21312;DHT22;18076;52.154;10.570;2022-09-25T00:03:48;12.70;99.90
21312;DHT22;18076;52.154;10.570;2022-09-25T00:06:15;12.70;99.90
21312;DHT22;18076;52.154;10.570;2022-09-25T00:08:41;12.70;99.90
21312;DHT22;18076;52.154;10.570;2022-09-25T00:11:07;12.60;99.90
21312;DHT22;18076;52.154;10.570;2022-09-25T00:13:33;12.60;99.90
21312;DHT22;18076;52.154;10.570;2022-09-25T00:15:58;12.70;99.90
21312;DHT22;18076;52.154;10.570;2022-09-25T00:18:24;12.70;99.90
21312;DHT22;18076;52.154;10.570;2022-09-25T00:21:09;12.60;99.90
21312;DHT22;18076;52.154;10.570;2022-09-25T00:23:37;12.70;99.90
21312;DHT22;18076;52.154;10.570;2022-09-25T00:26:03;12.60;99.90
21312;DHT22;18076;52.154;10.570;2022-09-25T00:28:30;12.70;99.90
21312;DHT22;18076;52.154;10.570;2022-09-25T00:30:56;12.70;99.90
21312;DHT22;18076;52.154;10.570;2022-09-25T00:33:21;12.70;99.90
21312;DHT22;18076;52.154;10.570;2022-09-25T00:35:47;12.60;99.90
21312;DHT22;18076;52.154;10.570;2022-09-25T00:38:13;12.60;99.90
21312;DHT22;18076;52.154;10.570;2022-09-25T00:40:38;12.60;99.90
21312;DHT22;18076;52.154;10.570;2022-09-25T00:43:05;12.60;99.90
21312;DHT22;18076;52.154;10.570;2022-09-25T00:45:34;12.60;99.90
21312;DHT22;18076;52.154;10.570;2022-09-25T00:48:03;12.50;99.90
21312;DHT22;18076;52.154;10.570;2022-09-25T00:52:57;12.50;99.90
21312;DHT22;18076;52.154;10.570;2022-09-25T00:55:28;12.50;99.90
21312;DHT22;18076;52.154;10.570;2022-09-25T00:57:55;12.40;99.90
21312;DHT22;18076;52.154;10.570;2022-09-25T01:00:21;12.50;99.90
21312;DHT22;18076;52.154;10.570;2022-09-25T01:02:49;12.50;99.90
21312;DHT22;18076;52.154;10.570;2022-09-25T01:05:18;12.50;99.90
21312;DHT22;18076;52.154;10.570;2022-09-25T01:07:45;12.50;99.90
21312;DHT22;18076;52.154;10.570;2022-09-25T01:10:12;12.50;99.90
21312;DHT22;18076;52.154;10.570;2022-09-25T01:12:39;12.50;99.90
21312;DHT22;18076;52.154;10.570;2022-09-25T01:15:06;12.60;99.90
21312;DHT22;18076;52.154;10.570;2022-09-25T01:20:16;12.70;99.90
21312;DHT22;18076;52.154;10.570;2022-09-25T01:30:46;12.70;99.90
21312;DHT22;18076;52.154;10.570;2022-09-25T01:33:23;12.80;99.90
21312;DHT22;18076;52.154;10.570;2022-09-25T01:35:59;12.80;99.90
21312;DHT22;18076;52.154;10.570;2022-09-25T01:38:34;12.80;99.90
21312;DHT22;18076;52.154;10.570;2022-09-25T01:43:33;12.90;99.90
21312;DHT22;18076;52.154;10.570;2022-09-25T01:46:07;12.80;99.90
21312;DHT22;18076;52.154;10.570;2022-09-25T01:48:34;12.80;99.90
21312;DHT22;18076;52.154;10.570;2022-09-25T01:53:48;12.80;99.90
21312;DHT22;18076;52.154;10.570;2022-09-25T01:56:31;12.90;99.90
21312;DHT22;18076;52.154;10.570;2022-09-25T02:01:42;12.80;99.90
21312;DHT22;18076;52.154;10.570;2022-09-25T02:04:10;12.90;99.90
21312;DHT22;18076;52.154;10.570;2022-09-25T02:06:37;12.90;99.90
21312;DHT22;18076;52.154;10.570;2022-09-25T02:09:05;12.90;99.90
21312;DHT22;18076;52.154;10.570;2022-09-25T02:11:33;12.90;99.90
21312;DHT22;18076;52.154;10.570;2022-09-25T02:14:02;12.80;99.90
21312;DHT22;18076;52.154;10.570;2022-09-25T02:16:32;12.70;99.90
21312;DHT22;18076;52.154;10.570;2022-09-25T02:18:59;12.60;99.90
21312;DHT22;18076;52.154;10.570;2022-09-25T02:22:44;12.60;99.90
21312;DHT22;18076;52.154;10.570;2022-09-25T02:27:04;12.60;99.90
21312;DHT22;18076;52.154;10.570;2022-09-25T02:29:29;12.60;99.90
21312;DHT22;18076;52.154;10.570;2022-09-25T02:31:58;12.50;99.90
21312;DHT22;18076;52.154;10.570;2022-09-25T02:34:26;12.50;99.90
21312;DHT22;18076;52.154;10.570;2022-09-25T02:36:52;12.50;99.90
21312;DHT22;18076;52.154;10.570;2022-09-25T02:39:19;12.40;99.90
21312;DHT22;18076;52.154;10.570;2022-09-25T02:47:21;12.40;99.90
21312;DHT22;18076;52.154;10.570;2022-09-25T02:52:36;12.40;99.90
21312;DHT22;18076;52.154;10.570;2022-09-25T02:55:28;12.40;99.90
21312;DHT22;18076;52.154;10.570;2022-09-25T02:57:51;12.40;99.90
21312;DHT22;18076;52.154;10.570;2022-09-25T03:00:18;12.40;99.90
21312;DHT22;18076;52.154;10.570;2022-09-25T03:02:47;12.40;99.90
21312;DHT22;18076;52.154;10.570;2022-09-25T03:05:13;12.50;99.90
21312;DHT22;18076;52.154;10.570;2022-09-25T03:07:39;12.50;99.90
21312;DHT22;18076;52.154;10.570;2022-09-25T03:10:23;12.60;99.90
21312;DHT22;18076;52.154;10.570;2022-09-25T03:12:50;12.60;99.90
21312;DHT22;18076;52.154;10.570;2022-09-25T03:15:16;12.60;99.90
21312;DHT22;18076;52.154;10.570;2022-09-25T03:17:41;12.60;99.90
21312;DHT22;18076;52.154;10.570;2022-09-25T03:20:07;12.60;99.90
21312;DHT22;18076;52.154;10.570;2022-09-25T03:22:34;12.50;99.90
21312;DHT22;18076;52.154;10.570;2022-09-25T03:25:00;12.60;99.90
21312;DHT22;18076;52.154;10.570;2022-09-25T03:27:25;12.60;99.90
21312;DHT22;18076;52.154;10.570;2022-09-25T03:29:53;12.60;99.90
21312;DHT22;18076;52.154;10.570;2022-09-25T03:32:19;12.60;99.90
21312;DHT22;18076;52.154;10.570;2022-09-25T03:34:45;12.60;99.90
21312;DHT22;18076;52.154;10.570;2022-09-25T03:37:10;12.50;99.90
21312;DHT22;18076;52.154;10.570;2022-09-25T03:39:36;12.60;99.90
21312;DHT22;18076;52.154;10.570;2022-09-25T03:42:01;12.60;99.90
21312;DHT22;18076;52.154;10.570;2022-09-25T03:44:28;12.60;99.90
21312;DHT22;18076;52.154;10.570;2022-09-25T03:46:53;12.60;99.90
21312;DHT22;18076;52.154;10.570;2022-09-25T03:49:19;12.50;99.90
21312;DHT22;18076;52.154;10.570;2022-09-25T03:51:44;12.60;99.90
21312;DHT22;18076;52.154;10.570;2022-09-25T03:54:10;12.60;99.90
21312;DHT22;18076;52.154;10.570;2022-09-25T03:56:35;12.60;99.90
21312;DHT22;18076;52.154;10.570;2022-09-25T03:59:01;12.60;99.90
21312;DHT22;18076;52.154;10.570;2022-09-25T04:01:26;12.60;99.90
21312;DHT22;18076;52.154;10.570;2022-09-25T04:03:52;12.50;99.90
21312;DHT22;18076;52.154;10.570;2022-09-25T04:06:19;12.60;99.90
21312;DHT22;18076;52.154;10.570;2022-09-25T04:08:45;12.60;99.90
21312;DHT22;18076;52.154;10.570;2022-09-25T04:11:11;12.60;99.90
21312;DHT22;18076;52.154;10.570;2022-09-25T04:13:37;12.60;99.90
21312;DHT22;18076;52.154;10.570;2022-09-25T04:16:06;12.60;99.90
21312;DHT22;18076;52.154;10.570;2022-09-25T04:18:32;12.60;99.90
21312;DHT22;18076;52.154;10.570;2022-09-25T04:20:58;12.60;99.90
21312;DHT22;18076;52.154;10.570;2022-09-25T04:23:23;12.50;99.90
21312;DHT22;18076;52.154;10.570;2022-09-25T04:25:49;12.60;99.90
21312;DHT22;18076;52.154;10.570;2022-09-25T04:28:15;12.50;99.90
21312;DHT22;18076;52.154;10.570;2022-09-25T04:30:40;12.50;99.90
21312;DHT22;18076;52.154;10.570;2022-09-25T04:33:06;12.50;99.90
21312;DHT22;18076;52.154;10.570;2022-09-25T04:35:50;12.50;99.90
21312;DHT22;18076;52.154;10.570;2022-09-25T04:38:15;12.50;99.90
21312;DHT22;18076;52.154;10.570;2022-09-25T04:40:41;12.50;99.90
21312;DHT22;18076;52.154;10.570;2022-09-25T04:43:06;12.50;99.90
21312;DHT22;18076;52.154;10.570;2022-09-25T04:45:33;12.50;99.90
21312;DHT22;18076;52.154;10.570;2022-09-25T04:47:59;12.50;99.90
21312;DHT22;18076;52.154;10.570;2022-09-25T04:50:25;12.50;99.90
21312;DHT22;18076;52.154;10.570;2022-09-25T04:52:51;12.50;99.90
21312;DHT22;18076;52.154;10.570;2022-09-25T04:55:17;12.50;99.90
21312;DHT22;18076;52.154;10.570;2022-09-25T04:57:43;12.50;99.90
21312;DHT22;18076;52.154;10.570;2022-09-25T05:00:09;12.40;99.90
21312;DHT22;18076;52.154;10.570;2022-09-25T05:02:35;12.40;99.90
21312;DHT22;18076;52.154;10.570;2022-09-25T05:05:01;12.40;99.90
21312;DHT22;18076;52.154;10.570;2022-09-25T05:07:27;12.40;99.90
21312;DHT22;18076;52.154;10.570;2022-09-25T05:09:53;12.50;99.90
21312;DHT22;18076;52.154;10.570;2022-09-25T05:12:18;12.40;99.90
21312;DHT22;18076;52.154;10.570;2022-09-25T05:14:45;12.40;99.90
21312;DHT22;18076;52.154;10.570;2022-09-25T05:17:10;12.40;99.90
21312;DHT22;18076;52.154;10.570;2022-09-25T05:19:37;12.40;99.90
21312;DHT22;18076;52.154;10.570;2022-09-25T05:22:02;12.40;99.90
21312;DHT22;18076;52.154;10.570;2022-09-25T05:24:28;12.40;99.90
21312;DHT22;18076;52.154;10.570;2022-09-25T05:26:55;12.40;99.90
21312;DHT22;18076;52.154;10.570;2022-09-25T05:29:21;12.40;99.90
21312;DHT22;18076;52.154;10.570;2022-09-25T05:31:47;12.30;99.90
21312;DHT22;18076;52.154;10.570;2022-09-25T05:34:14;12.30;99.90
21312;DHT22;18076;52.154;10.570;2022-09-25T05:36:39;12.30;99.90
21312;DHT22;18076;52.154;10.570;2022-09-25T05:39:05;12.30;99.90
21312;DHT22;18076;52.154;10.570;2022-09-25T05:41:31;12.30;99.90
21312;DHT22;18076;52.154;10.570;2022-09-25T05:43:59;12.30;99.90
21312;DHT22;18076;52.154;10.570;2022-09-25T05:46:24;12.30;99.90
21312;DHT22;18076;52.154;10.570;2022-09-25T05:48:50;12.30;99.90
21312;DHT22;18076;52.154;10.570;2022-09-25T05:51:16;12.30;99.90
21312;DHT22;18076;52.154;10.570;2022-09-25T05:53:41;12.20;99.90
21312;DHT22;18076;52.154;10.570;2022-09-25T05:56:06;12.30;99.90
21312;DHT22;18076;52.154;10.570;2022-09-25T05:58:32;12.20;99.90
21312;DHT22;18076;52.154;10.570;2022-09-25T06:01:03;12.20;99.90
21312;DHT22;18076;52.154;10.570;2022-09-25T06:03:29;12.30;99.90
21312;DHT22;18076;52.154;10.570;2022-09-25T06:05:55;12.30;99.90
21312;DHT22;18076;52.154;10.570;2022-09-25T06:08:21;12.30;99.90
21312;DHT22;18076;52.154;10.570;2022-09-25T06:10:50;12.30;99.90
21312;DHT22;18076;52.154;10.570;2022-09-25T06:13:16;12.30;99.90
21312;DHT22;18076;52.154;10.570;2022-09-25T06:15:42;12.30;99.90
21312;DHT22;18076;52.154;10.570;2022-09-25T06:18:08;12.40;99.90
21312;DHT22;18076;52.154;10.570;2022-09-25T06:20:34;12.40;99.90
21312;DHT22;18076;52.154;10.570;2022-09-25T06:22:59;12.40;99.90
21312;DHT22;18076;52.154;10.570;2022-09-25T06:25:29;12.40;99.90
21312;DHT22;18076;52.154;10.570;2022-09-25T06:27:57;12.40;99.90
21312;DHT22;18076;52.154;10.570;2022-09-25T06:30:25;12.40;99.90
21312;DHT22;18076;52.154;10.570;2022-09-25T06:32:58;12.40;99.90
21312;DHT22;18076;52.154;10.570;2022-09-25T06:35:24;12.40;99.90
21312;DHT22;18076;52.154;10.570;2022-09-25T06:37:50;12.40;99.90
21312;DHT22;18076;52.154;10.570;2022-09-25T06:40:15;12.40;99.90
21312;DHT22;18076;52.154;10.570;2022-09-25T06:42:41;12.40;99.90
21312;DHT22;18076;52.154;10.570;2022-09-25T06:45:06;12.40;99.90
21312;DHT22;18076;52.154;10.570;2022-09-25T06:47:33;12.40;99.90
21312;DHT22;18076;52.154;10.570;2022-09-25T06:49:59;12.40;99.90
21312;DHT22;18076;52.154;10.570;2022-09-25T06:52:25;12.40;99.90
21312;DHT22;18076;52.154;10.570;2022-09-25T06:54:50;12.50;99.90
21312;DHT22;18076;52.154;10.570;2022-09-25T06:57:16;12.50;99.90
21312;DHT22;18076;52.154;10.570;2022-09-25T06:59:41;12.50;99.90
21312;DHT22;18076;52.154;10.570;2022-09-25T07:02:07;12.60;99.90
21312;DHT22;18076;52.154;10.570;2022-09-25T07:04:52;12.60;99.90
21312;DHT22;18076;52.154;10.570;2022-09-25T07:07:18;12.60;99.90
21312;DHT22;18076;52.154;10.570;2022-09-25T07:09:44;12.70;99.90
21312;DHT22;18076;52.154;10.570;2022-09-25T07:12:10;12.70;99.90
21312;DHT22;18076;52.154;10.570;2022-09-25T07:14:35;12.70;99.90
21312;DHT22;18076;52.154;10.570;2022-09-25T07:17:02;12.60;99.90
21312;DHT22;18076;52.154;10.570;2022-09-25T07:19:28;12.60;99.90
21312;DHT22;18076;52.154;10.570;2022-09-25T07:21:53;12.60;99.90
21312;DHT22;18076;52.154;10.570;2022-09-25T07:24:19;12.60;99.90
21312;DHT22;18076;52.154;10.570;2022-09-25T07:26:46;12.60;99.90
21312;DHT22;18076;52.154;10.570;2022-09-25T07:29:11;12.60;99.90
21312;DHT22;18076;52.154;10.570;2022-09-25T07:31:37;12.60;99.90
21312;DHT22;18076;52.154;10.570;2022-09-25T07:34:03;12.60;99.90
21312;DHT22;18076;52.154;10.570;2022-09-25T07:36:34;12.70;99.90
21312;DHT22;18076;52.154;10.570;2022-09-25T07:39:00;12.70;99.90
21312;DHT22;18076;52.154;10.570;2022-09-25T07:41:25;12.80;99.90
21312;DHT22;18076;52.154;10.570;2022-09-25T07:43:52;12.80;99.90
21312;DHT22;18076;52.154;10.570;2022-09-25T07:46:17;12.80;99.90
21312;DHT22;18076;52.154;10.570;2022-09-25T07:48:43;12.90;99.90
21312;DHT22;18076;52.154;10.570;2022-09-25T07:51:09;12.90;99.90
21312;DHT22;18076;52.154;10.570;2022-09-25T07:53:35;13.00;99.90
21312;DHT22;18076;52.154;10.570;2022-09-25T07:56:01;13.00;99.90
21312;DHT22;18076;52.154;10.570;2022-09-25T07:58:27;13.00;99.90
21312;DHT22;18076;52.154;10.570;2022-09-25T08:00:53;13.00;99.90
21312;DHT22;18076;52.154;10.570;2022-09-25T08:03:19;13.00;99.90
21312;DHT22;18076;52.154;10.570;2022-09-25T08:05:45;13.00;99.90
21312;DHT22;18076;52.154;10.570;2022-09-25T08:08:11;13.00;99.90
21312;DHT22;18076;52.154;10.570;2022-09-25T08:10:36;13.10;99.90
21312;DHT22;18076;52.154;10.570;2022-09-25T08:13:02;13.10;99.90
21312;DHT22;18076;52.154;10.570;2022-09-25T08:15:28;13.20;99.90
21312;DHT22;18076;52.154;10.570;2022-09-25T08:17:54;13.20;99.90
21312;DHT22;18076;52.154;10.570;2022-09-25T08:20:19;13.20;99.90
21312;DHT22;18076;52.154;10.570;2022-09-25T08:22:45;13.20;99.90
21312;DHT22;18076;52.154;10.570;2022-09-25T08:25:11;13.20;99.90
21312;DHT22;18076;52.154;10.570;2022-09-25T08:27:39;13.10;99.90
21312;DHT22;18076;52.154;10.570;2022-09-25T08:30:09;13.10;99.90
21312;DHT22;18076;52.154;10.570;2022-09-25T08:32:35;13.10;99.90
21312;DHT22;18076;52.154;10.570;2022-09-25T08:35:01;13.10;99.90
21312;DHT22;18076;52.154;10.570;2022-09-25T08:37:26;13.10;99.90
21312;DHT22;18076;52.154;10.570;2022-09-25T08:39:52;13.20;99.90
21312;DHT22;18076;52.154;10.570;2022-09-25T08:42:24;13.20;99.90
21312;DHT22;18076;52.154;10.570;2022-09-25T08:44:54;13.30;99.90
21312;DHT22;18076;52.154;10.570;2022-09-25T08:47:40;13.30;99.90
21312;DHT22;18076;52.154;10.570;2022-09-25T08:50:24;13.40;99.90
21312;DHT22;18076;52.154;10.570;2022-09-25T08:52:56;13.50;99.90
21312;DHT22;18076;52.154;10.570;2022-09-25T08:55:24;13.60;99.90
21312;DHT22;18076;52.154;10.570;2022-09-25T08:58:10;13.70;99.90
21312;DHT22;18076;52.154;10.570;2022-09-25T09:00:37;13.90;99.90
21312;DHT22;18076;52.154;10.570;2022-09-25T09:03:03;14.00;99.90
21312;DHT22;18076;52.154;10.570;2022-09-25T09:07:58;14.20;99.90
21312;DHT22;18076;52.154;10.570;2022-09-25T09:18:40;13.90;99.90
21312;DHT22;18076;52.154;10.570;2022-09-25T09:21:10;13.80;99.90
21312;DHT22;18076;52.154;10.570;2022-09-25T09:26:14;13.70;99.90
21312;DHT22;18076;52.154;10.570;2022-09-25T09:29:02;13.70;99.90
21312;DHT22;18076;52.154;10.570;2022-09-25T09:36:37;13.90;99.90
21312;DHT22;18076;52.154;10.570;2022-09-25T09:39:20;14.00;99.90
21312;DHT22;18076;52.154;10.570;2022-09-25T09:42:06;14.00;99.90
21312;DHT22;18076;52.154;10.570;2022-09-25T09:44:49;13.90;99.90
21312;DHT22;18076;52.154;10.570;2022-09-25T09:52:38;13.80;99.90
21312;DHT22;18076;52.154;10.570;2022-09-25T09:55:18;13.80;99.90
21312;DHT22;18076;52.154;10.570;2022-09-25T09:57:49;13.80;99.90
21312;DHT22;18076;52.154;10.570;2022-09-25T10:00:16;13.80;99.90
21312;DHT22;18076;52.154;10.570;2022-09-25T10:02:43;13.80;99.90
21312;DHT22;18076;52.154;10.570;2022-09-25T10:06:11;13.70;99.90
21312;DHT22;18076;52.154;10.570;2022-09-25T10:08:05;13.80;99.90
21312;DHT22;18076;52.154;10.570;2022-09-25T10:12:56;13.80;99.90
21312;DHT22;18076;52.154;10.570;2022-09-25T10:17:51;13.80;99.90
21312;DHT22;18076;52.154;10.570;2022-09-25T10:20:19;13.80;99.90
21312;DHT22;18076;52.154;10.570;2022-09-25T10:22:44;13.90;99.90
21312;DHT22;18076;52.154;10.570;2022-09-25T10:25:11;14.00;99.90
21312;DHT22;18076;52.154;10.570;2022-09-25T10:27:41;14.00;99.90
21312;DHT22;18076;52.154;10.570;2022-09-25T10:32:42;14.20;99.90
21312;DHT22;18076;52.154;10.570;2022-09-25T10:35:15;14.20;99.90
21312;DHT22;18076;52.154;10.570;2022-09-25T10:37:42;14.10;99.90
21312;DHT22;18076;52.154;10.570;2022-09-25T10:40:24;14.20;99.90
21312;DHT22;18076;52.154;10.570;2022-09-25T10:45:32;14.20;99.90
21312;DHT22;18076;52.154;10.570;2022-09-25T10:47:58;14.20;99.90
21312;DHT22;18076;52.154;10.570;2022-09-25T10:50:42;14.10;99.90
21312;DHT22;18076;52.154;10.570;2022-09-25T10:53:41;14.20;99.90
21312;DHT22;18076;52.154;10.570;2022-09-25T10:56:07;14.10;99.90
21312;DHT22;18076;52.154;10.570;2022-09-25T10:58:37;14.10;99.90
21312;DHT22;18076;52.154;10.570;2022-09-25T11:01:04;14.10;99.90
21312;DHT22;18076;52.154;10.570;2022-09-25T11:03:32;14.10;99.90
21312;DHT22;18076;52.154;10.570;2022-09-25T11:06:04;14.10;99.90
21312;DHT22;18076;52.154;10.570;2022-09-25T11:08:32;14.10;99.90
21312;DHT22;18076;52.154;10.570;2022-09-25T11:10:59;14.00;99.90
21312;DHT22;18076;52.154;10.570;2022-09-25T11:13:26;14.10;99.90
21312;DHT22;18076;52.154;10.570;2022-09-25T11:15:56;14.10;99.90
21312;DHT22;18076;52.154;10.570;2022-09-25T11:18:35;14.20;99.90
21312;DHT22;18076;52.154;10.570;2022-09-25T11:21:02;14.30;99.90
21312;DHT22;18076;52.154;10.570;2022-09-25T11:25:57;14.40;99.90
21312;DHT22;18076;52.154;10.570;2022-09-25T11:33:47;14.60;99.90
21312;DHT22;18076;52.154;10.570;2022-09-25T11:36:35;14.50;99.90
21312;DHT22;18076;52.154;10.570;2022-09-25T11:39:01;14.60;99.90
21312;DHT22;18076;52.154;10.570;2022-09-25T11:41:48;14.60;99.90
21312;DHT22;18076;52.154;10.570;2022-09-25T11:47:06;14.70;99.90
21312;DHT22;18076;52.154;10.570;2022-09-25T11:49:35;14.70;99.90
21312;DHT22;18076;52.154;10.570;2022-09-25T11:57:33;14.50;99.90
21312;DHT22;18076;52.154;10.570;2022-09-25T12:05:02;14.50;99.90
21312;DHT22;18076;52.154;10.570;2022-09-25T12:18:18;14.50;99.90
21312;DHT22;18076;52.154;10.570;2022-09-25T12:20:53;14.50;99.90
21312;DHT22;18076;52.154;10.570;2022-09-25T12:33:52;14.40;99.90
21312;DHT22;18076;52.154;10.570;2022-09-25T12:41:32;14.30;99.90
21312;DHT22;18076;52.154;10.570;2022-09-25T12:44:00;14.40;99.90
21312;DHT22;18076;52.154;10.570;2022-09-25T12:46:40;14.40;99.90
21312;DHT22;18076;52.154;10.570;2022-09-25T12:49:10;14.50;99.90
21312;DHT22;18076;52.154;10.570;2022-09-25T12:51:48;14.50;99.90
21312;DHT22;18076;52.154;10.570;2022-09-25T12:56:57;14.50;99.90
21312;DHT22;18076;52.154;10.570;2022-09-25T12:59:44;14.50;99.90
21312;DHT22;18076;52.154;10.570;2022-09-25T13:13:00;14.60;99.90
21312;DHT22;18076;52.154;10.570;2022-09-25T13:15:27;14.70;99.90
21312;DHT22;18076;52.154;10.570;2022-09-25T13:17:54;14.80;99.90
21312;DHT22;18076;52.154;10.570;2022-09-25T13:22:55;14.90;99.90
21312;DHT22;18076;52.154;10.570;2022-09-25T13:25:21;14.90;99.90
21312;DHT22;18076;52.154;10.570;2022-09-25T13:27:48;15.00;99.90
21312;DHT22;18076;52.154;10.570;2022-09-25T13:30:23;15.10;99.90
21312;DHT22;18076;52.154;10.570;2022-09-25T13:32:53;15.10;99.90
21312;DHT22;18076;52.154;10.570;2022-09-25T13:35:20;15.10;99.90
21312;DHT22;18076;52.154;10.570;2022-09-25T13:37:45;15.10;99.90
21312;DHT22;18076;52.154;10.570;2022-09-25T13:40:16;15.00;99.90
21312;DHT22;18076;52.154;10.570;2022-09-25T13:43:17;15.00;99.90
21312;DHT22;18076;52.154;10.570;2022-09-25T13:45:47;15.00;99.90
21312;DHT22;18076;52.154;10.570;2022-09-25T13:56:15;15.30;99.90
21312;DHT22;18076;52.154;10.570;2022-09-25T14:01:31;15.40;99.90
21312;DHT22;18076;52.154;10.570;2022-09-25T14:03:57;15.50;99.90
21312;DHT22;18076;52.154;10.570;2022-09-25T14:06:29;15.60;99.90
21312;DHT22;18076;52.154;10.570;2022-09-25T14:08:59;15.70;99.90
21312;DHT22;18076;52.154;10.570;2022-09-25T14:11:32;15.60;99.90
21312;DHT22;18076;52.154;10.570;2022-09-25T14:14:00;15.50;99.90
21312;DHT22;18076;52.154;10.570;2022-09-25T14:16:27;15.50;99.90
21312;DHT22;18076;52.154;10.570;2022-09-25T14:18:57;15.80;99.90
21312;DHT22;18076;52.154;10.570;2022-09-25T14:21:24;16.20;99.90
21312;DHT22;18076;52.154;10.570;2022-09-25T14:23:51;16.60;99.90
21312;DHT22;18076;52.154;10.570;2022-09-25T14:26:19;16.90;99.90
21312;DHT22;18076;52.154;10.570;2022-09-25T14:28:46;17.00;99.90
21312;DHT22;18076;52.154;10.570;2022-09-25T14:36:50;16.50;99.90
21312;DHT22;18076;52.154;10.570;2022-09-25T14:44:38;15.80;99.90
21312;DHT22;18076;52.154;10.570;2022-09-25T14:47:07;15.80;99.90
21312;DHT22;18076;52.154;10.570;2022-09-25T14:49:35;15.90;99.90
21312;DHT22;18076;52.154;10.570;2022-09-25T14:52:25;16.10;99.90
21312;DHT22;18076;52.154;10.570;2022-09-25T14:54:48;16.30;99.90
21312;DHT22;18076;52.154;10.570;2022-09-25T14:57:16;16.20;99.90
21312;DHT22;18076;52.154;10.570;2022-09-25T14:59:43;16.30;99.90
21312;DHT22;18076;52.154;10.570;2022-09-25T15:02:17;16.40;99.90
21312;DHT22;18076;52.154;10.570;2022-09-25T15:04:44;16.50;99.90
21312;DHT22;18076;52.154;10.570;2022-09-25T15:07:17;16.40;99.90
21312;DHT22;18076;52.154;10.570;2022-09-25T15:09:43;16.30;99.90
21312;DHT22;18076;52.154;10.570;2022-09-25T15:17:22;15.90;99.90
21312;DHT22;18076;52.154;10.570;2022-09-25T15:19:48;15.70;99.90
21312;DHT22;18076;52.154;10.570;2022-09-25T15:22:21;15.70;99.90
21312;DHT22;18076;52.154;10.570;2022-09-25T15:24:49;15.60;99.90
21312;DHT22;18076;52.154;10.570;2022-09-25T15:27:15;15.60;99.90
21312;DHT22;18076;52.154;10.570;2022-09-25T15:29:43;15.50;99.90
21312;DHT22;18076;52.154;10.570;2022-09-25T15:32:16;15.40;99.90
21312;DHT22;18076;52.154;10.570;2022-09-25T15:34:42;15.30;99.90
21312;DHT22;18076;52.154;10.570;2022-09-25T15:37:26;15.30;99.90
21312;DHT22;18076;52.154;10.570;2022-09-25T15:39:53;15.30;99.90
21312;DHT22;18076;52.154;10.570;2022-09-25T15:42:19;15.20;99.90
21312;DHT22;18076;52.154;10.570;2022-09-25T15:44:45;15.30;99.90
21312;DHT22;18076;52.154;10.570;2022-09-25T15:49:55;15.30;99.90
21312;DHT22;18076;52.154;10.570;2022-09-25T15:52:21;15.40;99.90
21312;DHT22;18076;52.154;10.570;2022-09-25T15:54:47;15.40;99.90
21312;DHT22;18076;52.154;10.570;2022-09-25T15:57:14;15.30;99.90
21312;DHT22;18076;52.154;10.570;2022-09-25T15:59:42;15.30;99.90
21312;DHT22;18076;52.154;10.570;2022-09-25T16:02:59;15.20;99.90
21312;DHT22;18076;52.154;10.570;2022-09-25T16:05:47;15.10;99.90
21312;DHT22;18076;52.154;10.570;2022-09-25T16:10:39;14.90;99.90
21312;DHT22;18076;52.154;10.570;2022-09-25T16:13:14;14.80;99.90
21312;DHT22;18076;52.154;10.570;2022-09-25T16:15:43;14.70;99.90
21312;DHT22;18076;52.154;10.570;2022-09-25T16:21:15;14.60;99.90
21312;DHT22;18076;52.154;10.570;2022-09-25T16:23:39;14.50;99.90
21312;DHT22;18076;52.154;10.570;2022-09-25T16:26:16;14.50;99.90
21312;DHT22;18076;52.154;10.570;2022-09-25T16:28:55;14.40;99.90
21312;DHT22;18076;52.154;10.570;2022-09-25T16:31:23;14.40;99.90
21312;DHT22;18076;52.154;10.570;2022-09-25T16:33:50;14.50;99.90
21312;DHT22;18076;52.154;10.570;2022-09-25T16:36:16;14.50;99.90
21312;DHT22;18076;52.154;10.570;2022-09-25T16:39:01;14.50;99.90
21312;DHT22;18076;52.154;10.570;2022-09-25T16:41:27;14.50;99.90
21312;DHT22;18076;52.154;10.570;2022-09-25T16:44:09;14.60;99.90
21312;DHT22;18076;52.154;10.570;2022-09-25T16:46:38;14.50;99.90
21312;DHT22;18076;52.154;10.570;2022-09-25T16:49:05;14.60;99.90
21312;DHT22;18076;52.154;10.570;2022-09-25T16:51:30;14.50;99.90
21312;DHT22;18076;52.154;10.570;2022-09-25T16:53:57;14.50;99.90
21312;DHT22;18076;52.154;10.570;2022-09-25T16:56:23;14.60;99.90
21312;DHT22;18076;52.154;10.570;2022-09-25T16:58:50;14.60;99.90
21312;DHT22;18076;52.154;10.570;2022-09-25T17:01:16;14.60;99.90
21312;DHT22;18076;52.154;10.570;2022-09-25T17:03:42;14.60;99.90
21312;DHT22;18076;52.154;10.570;2022-09-25T17:06:14;14.60;99.90
21312;DHT22;18076;52.154;10.570;2022-09-25T17:08:40;14.60;99.90
21312;DHT22;18076;52.154;10.570;2022-09-25T17:11:05;14.50;99.90
21312;DHT22;18076;52.154;10.570;2022-09-25T17:13:31;14.50;99.90
21312;DHT22;18076;52.154;10.570;2022-09-25T17:15:58;14.50;99.90
21312;DHT22;18076;52.154;10.570;2022-09-25T17:18:24;14.50;99.90
21312;DHT22;18076;52.154;10.570;2022-09-25T17:20:53;14.30;99.90
21312;DHT22;18076;52.154;10.570;2022-09-25T17:23:19;14.30;99.90
21312;DHT22;18076;52.154;10.570;2022-09-25T17:25:46;14.30;99.90
21312;DHT22;18076;52.154;10.570;2022-09-25T17:28:12;14.30;99.90
21312;DHT22;18076;52.154;10.570;2022-09-25T17:30:39;14.20;99.90
21312;DHT22;18076;52.154;10.570;2022-09-25T17:33:07;14.30;99.90
21312;DHT22;18076;52.154;10.570;2022-09-25T17:35:47;14.20;99.90
21312;DHT22;18076;52.154;10.570;2022-09-25T17:38:13;14.10;99.90
21312;DHT22;18076;52.154;10.570;2022-09-25T17:40:44;14.10;99.90
21312;DHT22;18076;52.154;10.570;2022-09-25T17:43:10;14.00;99.90
21312;DHT22;18076;52.154;10.570;2022-09-25T17:45:56;14.00;99.90
21312;DHT22;18076;52.154;10.570;2022-09-25T17:48:24;14.00;99.90
21312;DHT22;18076;52.154;10.570;2022-09-25T17:50:52;14.00;99.90
21312;DHT22;18076;52.154;10.570;2022-09-25T17:53:18;14.00;99.90
21312;DHT22;18076;52.154;10.570;2022-09-25T17:55:44;13.90;99.90
21312;DHT22;18076;52.154;10.570;2022-09-25T17:58:13;13.90;99.90
21312;DHT22;18076;52.154;10.570;2022-09-25T18:00:40;13.80;99.90
21312;DHT22;18076;52.154;10.570;2022-09-25T18:03:05;13.80;99.90
21312;DHT22;18076;52.154;10.570;2022-09-25T18:05:31;13.80;99.90
21312;DHT22;18076;52.154;10.570;2022-09-25T18:07:56;13.80;99.90
21312;DHT22;18076;52.154;10.570;2022-09-25T18:10:23;13.80;99.90